Time;durP1;ratioP1;P1;durP2;ratioP2;P2;SDS_P1;SDS_P2;PMS_P1;PMS_P2;Temp;Humidity;BMP_temperature;BMP_pressure;BME280_temperature;BME280_humidity;BME280_pressure;Samples;Min_cycle;Max_cycle;Signal;HPM_P1;HPM_P2
2023/10/26 00:01:32;;;;;;;21.40;12.88;;;461.10;2380.80;;;;;;5113644;28;20031;-73
2023/10/26 00:03:57;;;;;;;20.77;12.25;;;461.10;2380.80;;;;;;5113372;28;20387;-73
2023/10/26 00:06:23;;;;;;;19.52;11.98;;;461.10;2380.80;;;;;;5113475;28;20016;-73
2023/10/26 00:08:49;;;;;;;21.90;14.05;;;460.90;2380.80;;;;;;5113460;28;20028;-74
2023/10/26 00:11:15;;;;;;;18.02;12.82;;;461.00;2380.80;;;;;;5113371;28;20024;-73
2023/10/26 00:13:40;;;;;;;19.02;13.65;;;461.10;2380.80;;;;;;5113653;28;20024;-73
2023/10/26 00:16:06;;;;;;;18.42;12.48;;;461.00;2380.80;;;;;;5117176;28;20031;-73
2023/10/26 00:18:32;;;;;;;25.25;14.13;;;460.90;2380.80;;;;;;5118646;28;20027;-73
2023/10/26 00:20:58;;;;;;;18.67;13.07;;;460.80;2380.80;;;;;;5120437;28;20078;-73
2023/10/26 00:23:24;;;;;;;19.13;13.00;;;460.80;2380.80;;;;;;5117695;28;20110;-73
2023/10/26 00:25:50;;;;;;;21.15;13.98;;;436.10;2355.20;;;;;;5117081;28;20047;-73
2023/10/26 00:28:16;;;;;;;22.33;13.38;;;436.10;2355.20;;;;;;5117493;28;20597;-73
2023/10/26 00:30:42;;;;;;;20.10;13.20;;;436.00;2355.20;;;;;;5117289;28;20024;-73
2023/10/26 00:33:08;;;;;;;24.55;14.13;;;435.80;2355.20;;;;;;5117058;28;20362;-73
2023/10/26 00:35:34;;;;;;;27.35;15.10;;;435.60;2355.20;;;;;;5117166;28;20026;-74
2023/10/26 00:38:00;;;;;;;21.92;14.73;;;435.50;2355.20;;;;;;5116907;28;20027;-73
2023/10/26 00:40:26;;;;;;;22.90;15.60;;;435.40;2355.20;;;;;;5117149;28;20061;-74
2023/10/26 00:42:57;;;;;;;28.20;16.88;;;435.40;2355.20;;;;;;5116631;28;20122;-73
2023/10/26 00:45:23;;;;;;;28.80;15.98;;;435.30;2355.20;;;;;;5116886;28;20069;-73
2023/10/26 00:47:50;;;;;;;20.40;13.82;;;435.30;2355.20;;;;;;5116940;28;20023;-73
2023/10/26 00:50:16;;;;;;;21.38;13.73;;;435.30;2355.20;;;;;;5116585;28;20023;-73
2023/10/26 00:52:42;;;;;;;27.95;14.88;;;435.50;2355.20;;;;;;5116754;28;20066;-73
2023/10/26 00:55:09;;;;;;;20.58;14.30;;;435.50;2355.20;;;;;;5116812;28;20021;-73
2023/10/26 00:57:35;;;;;;;23.05;14.90;;;435.50;2355.20;;;;;;5116546;28;20385;-73
2023/10/26 01:00:02;;;;;;;26.30;15.52;;;435.30;2355.20;;;;;;5116764;28;20027;-73
2023/10/26 01:02:29;;;;;;;23.63;14.88;;;435.40;2355.20;;;;;;5116897;28;20045;-73
2023/10/26 01:04:54;;;;;;;24.80;16.30;;;435.30;2355.20;;;;;;5116489;28;20107;-73
2023/10/26 01:07:20;;;;;;;27.10;13.93;;;435.30;2355.20;;;;;;5098308;28;20103;-73
2023/10/26 01:09:47;;;;;;;26.13;15.45;;;435.20;2355.20;;;;;;5115902;28;20075;-73
2023/10/26 01:12:13;;;;;;;21.58;14.57;;;435.30;2355.20;;;;;;5116233;28;20055;-73
2023/10/26 01:14:39;;;;;;;25.95;15.90;;;435.20;2355.20;;;;;;5115663;28;20043;-74
2023/10/26 01:17:05;;;;;;;24.77;15.27;;;435.30;2355.20;;;;;;5116296;28;20034;-74
2023/10/26 01:19:46;;;;;;;25.20;15.85;;;435.30;2355.20;;;;;;5116156;28;20107;-73
2023/10/26 01:22:12;;;;;;;21.75;14.48;;;435.20;2355.20;;;;;;5116102;28;20040;-74
2023/10/26 01:24:38;;;;;;;26.98;14.95;;;410.50;2355.20;;;;;;5116183;28;20477;-74
2023/10/26 01:27:04;;;;;;;24.42;14.10;;;435.20;2355.20;;;;;;5096855;28;20026;-73
2023/10/26 01:29:31;;;;;;;27.85;15.70;;;435.30;2355.20;;;;;;5116054;28;20061;-73
2023/10/26 01:31:57;;;;;;;25.50;15.75;;;435.30;2355.20;;;;;;5115884;28;20042;-74
2023/10/26 01:34:23;;;;;;;27.50;16.88;;;435.40;2355.20;;;;;;5115917;28;20465;-73
2023/10/26 01:36:48;;;;;;;25.73;16.65;;;435.50;2355.20;;;;;;5115943;28;20463;-74
2023/10/26 01:39:16;;;;;;;28.48;15.60;;;435.50;2355.20;;;;;;5115947;28;20023;-74
2023/10/26 01:41:42;;;;;;;28.85;17.70;;;435.60;2355.20;;;;;;5115695;28;20027;-73
2023/10/26 01:44:08;;;;;;;32.03;16.90;;;435.30;2355.20;;;;;;5115731;28;20035;-73
2023/10/26 01:46:33;;;;;;;30.17;16.50;;;435.20;2355.20;;;;;;5115768;28;20488;-73
2023/10/26 01:49:02;;;;;;;29.75;17.65;;;435.20;2355.20;;;;;;5115665;28;20035;-74
2023/10/26 01:51:28;;;;;;;29.52;15.98;;;435.20;2355.20;;;;;;5115233;28;20075;-74
2023/10/26 01:53:54;;;;;;;25.00;16.05;;;435.30;2355.20;;;;;;5116124;28;20058;-74
2023/10/26 01:56:20;;;;;;;26.70;16.67;;;435.30;2355.20;;;;;;5115352;28;20031;-74
2023/10/26 01:58:45;;;;;;;29.48;16.15;;;435.30;2355.20;;;;;;5115435;28;20028;-73
2023/10/26 02:01:13;;;;;;;22.25;14.80;;;435.50;2355.20;;;;;;5115390;28;20026;-74
2023/10/26 02:03:39;;;;;;;21.73;15.75;;;435.50;2355.20;;;;;;5115580;28;20118;-74
2023/10/26 02:06:05;;;;;;;27.08;15.10;;;435.40;2355.20;;;;;;5115201;28;20405;-74
2023/10/26 02:08:31;;;;;;;25.90;15.50;;;435.40;2355.20;;;;;;5115352;28;20019;-74
2023/10/26 02:10:56;;;;;;;22.92;14.48;;;435.40;2355.20;;;;;;5115167;28;20484;-74
2023/10/26 02:13:22;;;;;;;33.03;16.60;;;435.50;2355.20;;;;;;5115224;28;20081;-74
2023/10/26 02:15:48;;;;;;;21.85;13.90;;;435.50;2355.20;;;;;;5115092;28;20093;-75
2023/10/26 02:18:14;;;;;;;21.90;13.80;;;435.50;2355.20;;;;;;5115131;28;20027;-74
2023/10/26 02:20:39;;;;;;;23.52;14.85;;;435.60;2355.20;;;;;;5114708;28;20032;-74
2023/10/26 02:23:05;;;;;;;23.73;13.05;;;435.50;2355.20;;;;;;5114972;28;20023;-74
2023/10/26 02:25:31;;;;;;;24.83;13.38;;;435.40;2355.20;;;;;;5115124;28;20015;-73
2023/10/26 02:27:57;;;;;;;17.38;10.77;;;435.30;2355.20;;;;;;5114216;28;20028;-74
2023/10/26 02:30:23;;;;;;;19.92;10.95;;;410.50;2355.20;;;;;;5114156;28;20020;-73
2023/10/26 02:32:49;;;;;;;20.85;10.30;;;410.40;2355.20;;;;;;5114205;28;20047;-74
2023/10/26 02:35:15;;;;;;;15.77;9.38;;;410.20;2355.20;;;;;;5114509;28;20099;-74
2023/10/26 02:37:41;;;;;;;19.02;10.65;;;410.00;2355.20;;;;;;5105655;28;20556;-74
2023/10/26 02:40:10;;;;;;;17.40;9.65;;;410.00;2355.20;;;;;;5114522;28;20022;-74
2023/10/26 02:42:38;;;;;;;14.70;9.07;;;409.90;2355.20;;;;;;5113416;28;20046;-74
2023/10/26 02:45:05;;;;;;;21.60;11.70;;;410.00;2355.20;;;;;;5113758;28;20024;-73
2023/10/26 02:47:32;;;;;;;17.35;10.35;;;410.00;2355.20;;;;;;5113938;28;20027;-73
2023/10/26 02:49:57;;;;;;;19.92;11.45;;;409.90;2355.20;;;;;;5114110;28;20033;-73
2023/10/26 02:52:23;;;;;;;17.30;10.98;;;410.00;2355.20;;;;;;5113602;28;20148;-74
2023/10/26 02:54:49;;;;;;;22.55;10.73;;;410.20;2355.20;;;;;;5111411;28;20392;-74
2023/10/26 02:57:15;;;;;;;18.15;10.25;;;410.20;2355.20;;;;;;5113622;28;20104;-73
2023/10/26 02:59:40;;;;;;;18.45;9.45;;;410.40;2355.20;;;;;;5113668;28;20024;-73
2023/10/26 03:02:07;;;;;;;16.80;9.85;;;410.40;2355.20;;;;;;5114068;28;20028;-74
2023/10/26 03:04:34;;;;;;;21.20;10.52;;;410.30;2355.20;;;;;;5113544;28;20106;-73
2023/10/26 03:07:03;;;;;;;15.95;9.52;;;410.40;2355.20;;;;;;5104651;28;20065;-73
2023/10/26 03:09:29;;;;;;;26.08;10.32;;;410.40;2355.20;;;;;;5113661;28;20077;-73
2023/10/26 03:11:55;;;;;;;17.52;9.88;;;410.50;2355.20;;;;;;5109516;28;20023;-73
2023/10/26 03:14:21;;;;;;;20.25;9.65;;;410.50;2355.20;;;;;;5113344;28;20031;-73
2023/10/26 03:16:47;;;;;;;17.77;10.63;;;410.50;2355.20;;;;;;5113480;28;20119;-73
2023/10/26 03:19:13;;;;;;;20.38;8.95;;;410.40;2355.20;;;;;;5113023;28;20071;-72
2023/10/26 03:21:39;;;;;;;18.55;11.07;;;410.50;2355.20;;;;;;5113001;28;20031;-73
2023/10/26 03:24:05;;;;;;;19.10;10.02;;;410.50;2355.20;;;;;;5113657;28;20103;-73
2023/10/26 03:26:31;;;;;;;18.08;9.20;;;435.20;2355.20;;;;;;5112923;28;20419;-73
2023/10/26 03:28:56;;;;;;;15.57;9.77;;;435.20;2355.20;;;;;;5113071;28;20030;-72
2023/10/26 03:31:22;;;;;;;13.20;8.55;;;410.50;2355.20;;;;;;5113645;28;20077;-74
2023/10/26 03:33:49;;;;;;;19.10;9.93;;;435.20;2355.20;;;;;;5112816;28;20074;-72
2023/10/26 03:36:16;;;;;;;15.07;10.15;;;410.50;2355.20;;;;;;5113690;28;20030;-73
2023/10/26 03:38:43;;;;;;;18.13;8.57;;;410.40;2355.20;;;;;;5112821;28;20043;-73
2023/10/26 03:41:09;;;;;;;21.52;8.57;;;410.50;2355.20;;;;;;5113198;28;20062;-73
2023/10/26 03:43:34;;;;;;;19.80;10.35;;;410.40;2355.20;;;;;;5113391;28;20036;-73
2023/10/26 03:46:00;;;;;;;18.05;9.32;;;410.40;2355.20;;;;;;5109687;28;20034;-74
2023/10/26 03:48:26;;;;;;;20.05;8.35;;;410.40;2355.20;;;;;;5113213;28;20030;-73
2023/10/26 03:50:52;;;;;;;24.73;10.25;;;410.40;2355.20;;;;;;5112127;28;20093;-73
2023/10/26 03:53:17;;;;;;;16.95;9.15;;;410.50;2355.20;;;;;;5113064;28;20027;-73
2023/10/26 03:55:43;;;;;;;15.35;8.75;;;410.50;2355.20;;;;;;5113902;28;20049;-73
2023/10/26 03:58:12;;;;;;;20.42;8.43;;;435.20;2355.20;;;;;;5113760;28;20096;-73
2023/10/26 04:00:38;;;;;;;16.85;8.55;;;410.40;2355.20;;;;;;5094560;28;20499;-73
2023/10/26 04:03:03;;;;;;;17.02;7.93;;;410.50;2355.20;;;;;;5112576;28;20063;-73
2023/10/26 04:05:29;;;;;;;19.70;8.85;;;410.50;2355.20;;;;;;5113070;28;20530;-73
2023/10/26 04:07:56;;;;;;;17.58;8.23;;;410.50;2355.20;;;;;;5112571;28;20366;-74
2023/10/26 04:10:22;;;;;;;21.45;7.88;;;410.50;2355.20;;;;;;5112640;28;20020;-73
2023/10/26 04:12:48;;;;;;;15.25;7.20;;;435.20;2355.20;;;;;;5112242;28;20028;-73
2023/10/26 04:15:13;;;;;;;16.38;7.70;;;435.20;2355.20;;;;;;5112754;28;20055;-74
2023/10/26 04:17:39;;;;;;;12.40;7.35;;;435.20;2355.20;;;;;;5113288;28;20031;-73
2023/10/26 04:20:07;;;;;;;15.40;7.13;;;435.20;2355.20;;;;;;5112546;28;20051;-73
2023/10/26 04:22:33;;;;;;;15.27;7.80;;;435.20;2355.20;;;;;;5112479;28;20048;-73
2023/10/26 04:24:59;;;;;;;15.65;6.88;;;435.20;2355.20;;;;;;5112665;28;20027;-73
2023/10/26 04:27:25;;;;;;;17.55;7.45;;;435.20;2355.20;;;;;;5098498;28;20380;-74
2023/10/26 04:29:51;;;;;;;14.82;6.65;;;435.30;2355.20;;;;;;5112324;28;20024;-74
2023/10/26 04:32:17;;;;;;;15.18;6.97;;;435.30;2355.20;;;;;;5112421;28;20357;-74
2023/10/26 04:34:44;;;;;;;15.38;8.05;;;435.30;2355.20;;;;;;5112668;28;20032;-73
2023/10/26 04:37:10;;;;;;;14.75;7.03;;;435.50;2355.20;;;;;;5113058;28;20018;-74
2023/10/26 04:39:37;;;;;;;15.20;7.10;;;435.50;2355.20;;;;;;5112324;28;20073;-74
2023/10/26 04:42:04;;;;;;;13.50;6.57;;;435.50;2355.20;;;;;;5112545;28;20019;-74
2023/10/26 04:44:30;;;;;;;15.73;7.20;;;435.60;2355.20;;;;;;5111757;28;20110;-73
2023/10/26 04:46:56;;;;;;;14.48;6.97;;;435.60;2355.20;;;;;;5112469;28;20024;-74
2023/10/26 04:49:21;;;;;;;14.00;6.20;;;435.60;2355.20;;;;;;5080111;28;20097;-73
2023/10/26 04:51:47;;;;;;;12.45;6.53;;;435.60;2355.20;;;;;;5101894;28;20517;-73
2023/10/26 04:54:13;;;;;;;34.92;17.05;;;435.60;2355.20;;;;;;5111967;28;20099;-73
2023/10/26 04:56:38;;;;;;;25.58;14.65;;;435.30;2355.20;;;;;;5106425;28;20473;-73
2023/10/26 04:59:04;;;;;;;16.42;9.23;;;435.20;2355.20;;;;;;5101192;28;20036;-73
2023/10/26 05:01:30;;;;;;;11.50;7.18;;;410.50;2355.20;;;;;;5099855;28;20107;-73
2023/10/26 05:03:56;;;;;;;11.95;7.40;;;410.40;2355.20;;;;;;5106640;28;20374;-73
2023/10/26 05:06:21;;;;;;;13.18;7.30;;;410.40;2355.20;;;;;;5105806;28;20016;-73
2023/10/26 05:08:47;;;;;;;13.48;7.63;;;410.40;2355.20;;;;;;5106866;28;20107;-74
2023/10/26 05:11:13;;;;;;;15.90;9.02;;;410.40;2355.20;;;;;;5106983;28;20465;-74
2023/10/26 05:13:39;;;;;;;14.75;7.78;;;410.40;2355.20;;;;;;5107113;28;20028;-74
2023/10/26 05:16:04;;;;;;;13.00;7.53;;;410.30;2355.20;;;;;;5111291;28;20496;-74
2023/10/26 05:18:30;;;;;;;15.07;8.18;;;410.30;2355.20;;;;;;5111681;28;20091;-73
2023/10/26 05:20:56;;;;;;;15.30;8.25;;;410.30;2355.20;;;;;;5103896;28;20106;-73
2023/10/26 05:23:22;;;;;;;18.15;9.93;;;410.20;2355.20;;;;;;5106397;28;20036;-73
2023/10/26 05:25:48;;;;;;;18.27;8.73;;;410.20;2355.20;;;;;;5107628;28;20023;-73
2023/10/26 05:28:15;;;;;;;20.13;8.15;;;410.20;2355.20;;;;;;5102555;28;20024;-74
2023/10/26 05:30:41;;;;;;;19.65;9.98;;;410.30;2355.20;;;;;;5109102;28;20027;-73
2023/10/26 05:33:06;;;;;;;22.30;9.27;;;410.40;2355.20;;;;;;5101050;28;20035;-73
2023/10/26 05:35:32;;;;;;;14.68;9.13;;;410.30;2355.20;;;;;;5100064;28;20099;-73
2023/10/26 05:37:58;;;;;;;27.90;16.88;;;410.40;2355.20;;;;;;5104839;28;20031;-73
2023/10/26 05:40:24;;;;;;;11.52;7.30;;;410.30;2355.20;;;;;;5104312;28;20077;-74
2023/10/26 05:42:50;;;;;;;18.13;8.38;;;409.90;2355.20;;;;;;5089640;28;20141;-73
2023/10/26 05:45:16;;;;;;;19.55;8.48;;;410.20;2355.20;;;;;;5103978;28;20038;-73
2023/10/26 05:47:42;;;;;;;20.65;8.45;;;410.20;2355.20;;;;;;5102699;28;20477;-75
2023/10/26 05:50:08;;;;;;;13.60;7.72;;;410.30;2355.20;;;;;;5098117;28;20051;-75
2023/10/26 05:52:33;;;;;;;13.27;7.38;;;410.30;2355.20;;;;;;5108986;28;20142;-74
2023/10/26 05:54:59;;;;;;;14.43;7.20;;;410.30;2355.20;;;;;;5109066;28;20115;-76
2023/10/26 05:57:28;;;;;;;18.20;8.30;;;410.40;2355.20;;;;;;5105339;28;20032;-76
2023/10/26 05:59:53;;;;;;;14.77;8.02;;;410.50;2355.20;;;;;;5109197;28;20423;-76
2023/10/26 06:02:19;;;;;;;15.90;6.90;;;410.50;2355.20;;;;;;5103583;28;20036;-74
2023/10/26 06:04:45;;;;;;;14.30;8.02;;;410.50;2355.20;;;;;;5101297;28;20081;-76
2023/10/26 06:07:11;;;;;;;16.45;7.13;;;435.20;2355.20;;;;;;5102141;28;20024;-77
2023/10/26 06:09:36;;;;;;;17.45;7.68;;;435.30;2355.20;;;;;;5101454;28;20035;-74
2023/10/26 06:12:02;;;;;;;17.92;7.57;;;435.40;2355.20;;;;;;5107715;28;20549;-75
2023/10/26 06:14:28;;;;;;;17.00;6.95;;;435.50;2355.20;;;;;;5097776;28;20023;-76
2023/10/26 06:16:53;;;;;;;15.70;7.43;;;435.50;2355.20;;;;;;5103279;28;20106;-76
2023/10/26 06:19:19;;;;;;;14.65;7.05;;;435.50;2355.20;;;;;;5092612;28;20027;-74
2023/10/26 06:21:45;;;;;;;15.75;6.63;;;435.50;2355.20;;;;;;5103458;28;20032;-74
2023/10/26 06:24:10;;;;;;;13.70;6.85;;;435.50;2355.20;;;;;;5103959;28;20504;-75
2023/10/26 06:26:36;;;;;;;14.63;6.45;;;435.60;2355.20;;;;;;5099802;28;20032;-74
2023/10/26 06:29:02;;;;;;;17.75;7.13;;;435.70;2355.20;;;;;;5106396;28;20497;-74
2023/10/26 06:31:28;;;;;;;12.55;6.35;;;435.70;2355.20;;;;;;5095983;28;20446;-74
2023/10/26 06:33:53;;;;;;;13.68;6.15;;;435.70;2355.20;;;;;;5104588;28;20030;-74
2023/10/26 06:36:19;;;;;;;15.93;7.50;;;435.80;2355.20;;;;;;5100776;28;20020;-76
2023/10/26 06:38:45;;;;;;;16.33;7.18;;;435.80;2355.20;;;;;;5107975;28;20028;-76
2023/10/26 06:41:11;;;;;;;14.70;5.57;;;435.80;2355.20;;;;;;5104584;28;20095;-77
2023/10/26 06:43:37;;;;;;;18.58;6.30;;;435.90;2355.20;;;;;;5095962;28;20093;-76
2023/10/26 06:46:03;;;;;;;17.83;6.25;;;435.90;2355.20;;;;;;5099282;28;20078;-77
2023/10/26 06:48:29;;;;;;;16.38;6.55;;;435.90;2355.20;;;;;;5110153;28;20028;-77
2023/10/26 06:51:02;;;;;;;18.67;6.30;;;436.00;2355.20;;;;;;5103141;28;20096;-76
2023/10/26 06:53:28;;;;;;;16.58;5.80;;;436.00;2355.20;;;;;;5099543;28;20048;-77
2023/10/26 06:55:54;;;;;;;16.33;6.20;;;436.00;2355.20;;;;;;5106877;28;20020;-77
2023/10/26 06:58:20;;;;;;;12.10;6.00;;;435.90;2355.20;;;;;;5103291;28;20065;-79
2023/10/26 07:00:46;;;;;;;12.80;5.47;;;435.90;2355.20;;;;;;5105761;28;20482;-78
2023/10/26 07:03:13;;;;;;;13.68;5.75;;;435.90;2355.20;;;;;;5106413;28;20063;-77
2023/10/26 07:05:39;;;;;;;15.02;6.22;;;436.00;2355.20;;;;;;5083695;28;20028;-76
2023/10/26 07:08:04;;;;;;;11.48;6.30;;;435.90;2355.20;;;;;;5100898;28;20477;-76
2023/10/26 07:10:31;;;;;;;15.02;6.20;;;435.80;2355.20;;;;;;5103386;28;20035;-76
2023/10/26 07:12:57;;;;;;;12.88;5.57;;;435.80;2355.20;;;;;;5098783;28;20047;-76
2023/10/26 07:15:23;;;;;;;11.50;5.63;;;435.80;2355.20;;;;;;5102172;28;20019;-76
2023/10/26 07:17:49;;;;;;;15.70;6.82;;;435.80;2355.20;;;;;;5102661;28;20024;-76
2023/10/26 07:20:14;;;;;;;16.98;6.05;;;435.70;2355.20;;;;;;5103132;28;20123;-75
2023/10/26 07:22:42;;;;;;;14.20;6.30;;;435.70;2355.20;;;;;;5100249;28;20452;-75
2023/10/26 07:25:09;;;;;;;18.33;6.07;;;435.60;2355.20;;;;;;5106924;28;20023;-75
2023/10/26 07:27:34;;;;;;;16.33;6.50;;;435.50;2355.20;;;;;;5107698;28;20114;-74
2023/10/26 07:30:01;;;;;;;18.90;6.43;;;435.40;2355.20;;;;;;5107551;28;20028;-74
2023/10/26 07:32:26;;;;;;;19.25;6.47;;;435.30;2355.20;;;;;;5099726;28;20032;-74
2023/10/26 07:34:54;;;;;;;18.85;8.73;;;435.30;2355.20;;;;;;5106214;28;20495;-75
2023/10/26 07:37:19;;;;;;;11.75;5.85;;;435.30;2355.20;;;;;;5100213;28;20094;-75
2023/10/26 07:39:45;;;;;;;20.70;5.75;;;435.30;2355.20;;;;;;5109200;28;20099;-75
2023/10/26 07:42:11;;;;;;;14.68;5.82;;;435.30;2355.20;;;;;;5107538;28;20496;-75
2023/10/26 07:44:40;;;;;;;18.92;6.15;;;435.50;2355.20;;;;;;5100020;28;20473;-75
2023/10/26 07:47:08;;;;;;;24.90;6.45;;;435.50;2355.20;;;;;;5103084;28;20032;-75
2023/10/26 07:49:34;;;;;;;16.10;6.53;;;435.60;2355.20;;;;;;5086004;28;20102;-76
2023/10/26 07:52:00;;;;;;;15.90;6.07;;;435.80;2355.20;;;;;;5088420;28;20099;-75
2023/10/26 07:54:26;;;;;;;22.35;7.45;;;435.80;2355.20;;;;;;5081697;28;20202;-75
2023/10/26 07:56:52;;;;;;;18.15;7.70;;;435.90;2355.20;;;;;;5061443;28;20402;-76
2023/10/26 07:59:18;;;;;;;17.33;5.88;;;435.90;2355.20;;;;;;5064629;28;20016;-74
2023/10/26 08:01:44;;;;;;;20.58;6.70;;;435.90;2355.20;;;;;;5086005;28;20024;-75
2023/10/26 08:04:10;;;;;;;15.27;6.63;;;436.00;2355.20;;;;;;5075044;28;20029;-75
2023/10/26 08:06:35;;;;;;;12.88;5.95;;;436.10;2355.20;;;;;;5080977;28;20032;-76
2023/10/26 08:09:01;;;;;;;13.25;5.57;;;460.80;2380.80;;;;;;5090837;28;20078;-76
2023/10/26 08:11:27;;;;;;;17.08;6.75;;;460.80;2380.80;;;;;;5081123;28;20035;-76
2023/10/26 08:13:53;;;;;;;20.40;6.47;;;460.80;2380.80;;;;;;5079208;28;20033;-75
2023/10/26 08:16:19;;;;;;;13.23;5.90;;;460.80;2380.80;;;;;;5078081;28;20055;-76
2023/10/26 08:18:44;;;;;;;16.77;6.35;;;460.90;2380.80;;;;;;5083874;28;20024;-76
2023/10/26 08:21:10;;;;;;;23.65;6.18;;;461.00;2380.80;;;;;;5080765;28;20490;-76
2023/10/26 08:23:36;;;;;;;14.68;6.53;;;461.10;2380.80;;;;;;5082765;28;20070;-76
2023/10/26 08:26:09;;;;;;;17.00;5.80;;;461.10;2380.80;;;;;;5080860;28;20066;-74
2023/10/26 08:28:36;;;;;;;15.77;7.10;;;461.70;2380.80;;;;;;5079775;28;20025;-74
2023/10/26 08:31:02;;;;;;;14.05;5.72;;;461.20;2380.80;;;;;;5066741;28;20378;-75
2023/10/26 08:33:31;;;;;;;18.73;5.57;;;461.40;2380.80;;;;;;5081472;28;20035;-75
2023/10/26 08:35:57;;;;;;;17.77;6.20;;;461.40;2380.80;;;;;;5079089;28;20108;-75
2023/10/26 08:38:23;;;;;;;12.07;5.10;;;461.40;2380.80;;;;;;5086422;28;20107;-74
2023/10/26 08:40:53;;;;;;;15.07;5.63;;;461.40;2380.80;;;;;;5090507;28;20465;-73
2023/10/26 08:43:20;;;;;;;15.07;4.97;;;461.40;2380.80;;;;;;5089802;28;20059;-75
2023/10/26 08:45:49;;;;;;;17.05;5.95;;;461.40;2380.80;;;;;;5078980;28;20137;-75
2023/10/26 08:48:17;;;;;;;18.00;4.93;;;461.50;2380.80;;;;;;5095167;28;20020;-76
2023/10/26 08:50:44;;;;;;;12.95;5.35;;;461.50;2380.80;;;;;;5079800;28;20025;-77
2023/10/26 08:53:10;;;;;;;15.35;4.85;;;461.60;2380.80;;;;;;5103829;28;20115;-75
2023/10/26 08:55:39;;;;;;;16.13;5.55;;;461.60;2380.80;;;;;;5099416;28;20104;-74
2023/10/26 08:58:05;;;;;;;17.60;5.10;;;461.70;2380.80;;;;;;5113860;28;20024;-75
2023/10/26 09:00:31;;;;;;;17.95;5.22;;;486.40;2380.80;;;;;;5102340;28;20069;-73
2023/10/26 09:02:57;;;;;;;12.18;5.75;;;461.60;2380.80;;;;;;5105080;28;20032;-76
2023/10/26 09:05:23;;;;;;;18.85;5.88;;;486.60;2380.80;;;;;;5102640;28;20485;-76
2023/10/26 09:07:51;;;;;;;18.63;5.88;;;486.60;2380.80;;;;;;5102168;28;20435;-75
2023/10/26 09:10:33;;;;;;;22.25;9.70;;;486.70;2380.80;;;;;;5103244;28;20094;-74
2023/10/26 09:13:04;;;;;;;22.70;8.30;;;486.80;2380.80;;;;;;5105066;28;20032;-74
2023/10/26 09:15:30;;;;;;;27.38;12.82;;;486.80;2380.80;;;;;;5108118;28;20106;-75
2023/10/26 09:17:57;;;;;;;24.50;11.05;;;486.90;2380.80;;;;;;5114496;28;20495;-75
2023/10/26 09:20:24;;;;;;;26.08;10.32;;;487.10;2380.80;;;;;;5101674;28;20067;-75
2023/10/26 09:22:50;;;;;;;12.88;6.10;;;487.30;2380.80;;;;;;5108591;28;20138;-76
2023/10/26 09:25:17;;;;;;;13.90;7.07;;;487.30;2380.80;;;;;;5099121;28;20532;-77
2023/10/26 09:27:44;;;;;;;16.65;6.13;;;512.10;2380.80;;;;;;5102682;28;20085;-74
2023/10/26 09:30:28;;;;;;;20.48;6.03;;;512.20;2380.80;;;;;;5098034;28;20081;-77
2023/10/26 09:32:54;;;;;;;12.63;5.18;;;512.30;2380.80;;;;;;5100438;28;20036;-77
2023/10/26 09:35:31;;;;;;;13.90;4.63;;;512.40;2380.80;;;;;;5100472;28;20024;-77
2023/10/26 09:37:58;;;;;;;12.50;4.22;;;512.40;2380.80;;;;;;5103917;28;20031;-78
2023/10/26 09:40:26;;;;;;;11.57;3.95;;;512.50;2380.80;;;;;;5112988;28;20031;-77
2023/10/26 09:42:52;;;;;;;11.60;4.35;;;512.50;2380.80;;;;;;5111396;28;20080;-79
2023/10/26 09:45:19;;;;;;;12.95;4.00;;;512.60;2380.80;;;;;;5103619;28;20023;-76
2023/10/26 09:47:45;;;;;;;8.23;4.38;;;512.80;2380.80;;;;;;5104727;28;20468;-77
2023/10/26 09:50:11;;;;;;;9.85;4.00;;;537.70;2406.40;;;;;;5103623;28;20487;-79
2023/10/26 09:52:40;;;;;;;12.70;5.43;;;537.70;2406.40;;;;;;5103942;28;20052;-78
2023/10/26 09:55:13;;;;;;;11.07;5.40;;;537.70;2406.40;;;;;;5104044;27;20030;-78
2023/10/26 09:58:03;;;;;;;10.32;4.30;;;537.70;2406.40;;;;;;5103948;28;20054;-78
2023/10/26 10:00:33;;;;;;;16.13;5.30;;;537.60;2406.40;;;;;;5111447;28;20110;-79
2023/10/26 10:03:18;;;;;;;15.80;4.38;;;537.60;2406.40;;;;;;5104559;28;20120;-78
2023/10/26 10:05:46;;;;;;;11.65;5.50;;;537.60;2406.40;;;;;;5104160;27;20504;-77
2023/10/26 10:08:13;;;;;;;13.90;5.55;;;537.60;2406.40;;;;;;5100804;28;20436;-76
2023/10/26 10:11:15;;;;;;;13.98;5.20;;;537.60;2406.40;;;;;;5114930;28;20042;-77
2023/10/26 10:13:41;;;;;;;11.70;4.65;;;537.60;2406.40;;;;;;5051895;28;20140;-77
2023/10/26 10:16:35;;;;;;;11.20;5.32;;;537.60;2406.40;;;;;;5034391;28;20502;-78
2023/10/26 10:19:18;;;;;;;13.95;4.72;;;537.60;2406.40;;;;;;5035133;28;20043;-78
2023/10/26 10:21:44;;;;;;;10.85;5.05;;;537.70;2406.40;;;;;;5044161;28;20029;-78
2023/10/26 10:24:10;;;;;;;11.40;5.65;;;537.70;2406.40;;;;;;5051597;28;20087;-78
2023/10/26 10:27:13;;;;;;;13.73;5.78;;;537.80;2406.40;;;;;;5052179;28;20033;-78
2023/10/26 10:29:42;;;;;;;18.33;5.15;;;537.80;2406.40;;;;;;5051839;28;20033;-78
2023/10/26 10:32:12;;;;;;;11.88;4.40;;;537.80;2406.40;;;;;;5032962;28;20128;-77
2023/10/26 10:34:45;;;;;;;13.50;4.45;;;537.90;2406.40;;;;;;5051470;28;20086;-77
2023/10/26 10:37:12;;;;;;;9.05;3.78;;;538.00;2406.40;;;;;;5034534;28;20430;-77
2023/10/26 10:39:39;;;;;;;9.77;3.65;;;538.00;2406.40;;;;;;5053112;28;20096;-77
2023/10/26 10:42:09;;;;;;;16.70;4.00;;;538.00;2406.40;;;;;;5057017;28;20032;-77
2023/10/26 10:44:36;;;;;;;9.07;3.38;;;538.00;2406.40;;;;;;5051325;28;20136;-75
2023/10/26 10:47:02;;;;;;;7.38;3.53;;;538.00;2406.40;;;;;;5052078;28;20025;-76
2023/10/26 10:49:29;;;;;;;11.63;4.03;;;538.00;2406.40;;;;;;5031883;28;20565;-77
2023/10/26 10:51:54;;;;;;;10.38;3.65;;;538.00;2406.40;;;;;;5088194;28;20177;-77
2023/10/26 10:54:22;;;;;;;7.43;2.83;;;538.00;2406.40;;;;;;5080534;28;20061;-77
2023/10/26 10:56:49;;;;;;;9.90;3.65;;;538.00;2406.40;;;;;;5062025;28;20051;-77
2023/10/26 10:59:25;;;;;;;9.32;3.60;;;537.90;2406.40;;;;;;5098966;28;20025;-76
2023/10/26 11:02:06;;;;;;;7.45;2.83;;;538.00;2406.40;;;;;;5102979;28;20017;-77
2023/10/26 11:04:31;;;;;;;9.18;2.75;;;538.30;2406.40;;;;;;5080263;28;20032;-77
2023/10/26 11:06:57;;;;;;;11.20;3.50;;;538.50;2406.40;;;;;;5084833;28;20134;-78
2023/10/26 11:09:26;;;;;;;8.52;2.53;;;538.50;2406.40;;;;;;5076436;28;20033;-81
2023/10/26 11:11:52;;;;;;;7.00;2.72;;;563.20;2432.00;;;;;;5062671;28;20028;-79
2023/10/26 11:14:19;;;;;;;7.20;2.80;;;563.40;2432.00;;;;;;5062452;28;20027;-80
2023/10/26 11:16:46;;;;;;;9.90;3.78;;;;;;;;;;5077084;28;20496;-78
2023/10/26 11:19:12;;;;;;;8.38;2.63;;;;;;;;;;5070700;28;20028;-78
2023/10/26 11:21:39;;;;;;;8.18;2.60;;;;;;;;;;5075826;28;20053;-78
2023/10/26 11:24:05;;;;;;;5.68;2.65;;;;;;;;;;5084769;28;20652;-78
2023/10/26 11:26:31;;;;;;;6.05;2.75;;;;;;;;;;5064277;28;20105;-78
2023/10/26 11:29:00;;;;;;;11.05;2.88;;;;;;;;;;5087435;28;20063;-78
2023/10/26 11:31:42;;;;;;;8.90;3.13;;;;;;;;;;5081705;28;20017;-78
2023/10/26 11:34:08;;;;;;;9.82;2.50;;;;;;;;;;5067005;28;20067;-79
2023/10/26 11:36:38;;;;;;;6.82;2.58;;;;;;;;;;5064523;28;20504;-79
2023/10/26 11:39:04;;;;;;;9.88;2.95;;;;;;;;;;5081666;28;20082;-79
2023/10/26 11:41:33;;;;;;;8.50;3.38;;;;;;;;;;5078151;28;20047;-79
2023/10/26 11:43:59;;;;;;;7.13;3.63;;;;;;;;;;5087805;28;20078;-79
2023/10/26 11:46:33;;;;;;;9.27;3.22;;;;;;;;;;5062493;28;20036;-79
2023/10/26 11:48:59;;;;;;;8.35;3.15;;;;;;;;;;5065821;28;20107;-79
2023/10/26 11:51:25;;;;;;;7.43;2.38;;;;;;;;;;5089314;28;20039;-79
2023/10/26 11:53:51;;;;;;;8.85;2.50;;;;;;;;;;5061816;28;20402;-79
2023/10/26 11:56:18;;;;;;;5.50;2.28;;;;;;;;;;5063046;28;20020;-78
2023/10/26 11:58:44;;;;;;;8.88;2.88;;;;;;;;;;5083964;28;20052;-79
2023/10/26 12:01:10;;;;;;;6.82;2.80;;;;;;;;;;5080353;28;20020;-79
2023/10/26 12:03:42;;;;;;;6.45;2.28;;;;;;;;;;5086679;28;20126;-78
2023/10/26 12:06:10;;;;;;;5.63;2.63;;;;;;;;;;5070736;28;20460;-78
2023/10/26 12:08:36;;;;;;;3.90;2.22;;;;;;;;;;5084487;28;20025;-78
2023/10/26 12:11:04;;;;;;;5.57;1.77;;;;;;;;;;5077326;28;20108;-79
2023/10/26 12:13:32;;;;;;;7.40;2.50;;;;;;;;;;5073167;28;20060;-79
2023/10/26 12:15:58;;;;;;;8.07;2.17;;;;;;;;;;5077836;28;20432;-79
2023/10/26 12:18:25;;;;;;;7.32;2.38;;;;;;;;;;5088003;28;20020;-79